Denzil, Canada
Current Conditions -  °F | °C
As of 4:00 AM on Wednesday 26 Nov 2014 (Local Time) from CYKY Reporting Station
Overcast Overcast  
Wind Chill:   Ceiling: 2500
Heat Index: 10°   Visibility: 15mi
Dew Point:   Wind: 5mph
Humidity: 85%   Direction: 140°SE
Pressure: 30.24"   Gusts: NA
Location:  52.23°N, 109.65°W
Report Text: CYKY 261000Z 14004KT 060V160 15SM OVC025 M12/M14 A3024 RMK SC8 SLP291
Loading
Personal Weather Stations






























Interactive Weather Map New forecast layout! Learn more

10-Day Weather Forecast

Advertisements
Track Severe Weather on mobile